< < Back
Terminal Aerodrome Forecast


Current Version              Previous Versions:   1  2  3  4  5  6  7  8  9  

Terminal Aerodrome Forecast

538
FTUS44 KMOB 232300
TAFPNS
TAF
KPNS 232320Z 2400/2424 36004KT P6SM BKN150
     FM241700 01007KT P6SM SKC=

Latest METAR

210
SAUS70 KWBC 250056
MTRPNS
METAR KPNS 250053Z 35005KT 10SM CLR 18/07 A3003 RMK AO2 SLP170
T01780072


USA.gov is the U.S. government's official web portal to all federal, state and local government web resources and services.